Time;durP1;ratioP1;P1;durP2;ratioP2;P2;SDS_P1;SDS_P2;PMS_P1;PMS_P2;Temp;Humidity;BMP_temperature;BMP_pressure;BME280_temperature;BME280_humidity;BME280_pressure;Samples;Min_cycle;Max_cycle;Signal;HPM_P1;HPM_P2
2021/11/19 00:01:04;;;;;;;23.63;13.82;;;2.20;93.20;;;;;;5029125;28;20030;-77
2021/11/19 00:03:30;;;;;;;20.52;11.55;;;2.10;93.00;;;;;;5049227;28;20049;-77
2021/11/19 00:05:56;;;;;;;29.45;14.18;;;2.00;92.80;;;;;;5024786;28;20382;-77
2021/11/19 00:08:25;;;;;;;27.38;14.82;;;2.00;91.80;;;;;;5029027;28;20065;-77
2021/11/19 00:10:56;;;;;;;29.13;15.93;;;2.10;91.90;;;;;;5026646;28;20032;-78
2021/11/19 00:13:23;;;;;;;30.00;16.92;;;2.00;92.00;;;;;;5041814;28;20022;-77
2021/11/19 00:15:49;;;;;;;35.28;17.77;;;2.00;91.70;;;;;;5039044;28;20479;-77
2021/11/19 00:18:15;;;;;;;29.02;15.95;;;2.10;91.20;;;;;;5024126;28;20102;-77
2021/11/19 00:20:41;;;;;;;30.35;15.48;;;2.00;91.70;;;;;;5025214;28;20501;-76
2021/11/19 00:23:07;;;;;;;28.77;16.45;;;2.10;90.70;;;;;;5024790;28;20033;-77
2021/11/19 00:25:34;;;;;;;29.98;16.42;;;2.10;90.60;;;;;;5021820;28;20449;-76
2021/11/19 00:28:01;;;;;;;28.45;16.25;;;2.10;90.80;;;;;;5030663;28;20029;-77
2021/11/19 00:30:29;;;;;;;35.25;18.13;;;2.00;90.90;;;;;;5024909;28;20025;-78
2021/11/19 00:32:54;;;;;;;35.63;18.30;;;1.90;90.90;;;;;;5026995;28;20029;-78
2021/11/19 00:35:20;;;;;;;36.90;18.08;;;2.00;90.40;;;;;;5020189;28;20030;-77
2021/11/19 00:37:51;;;;;;;34.22;17.23;;;1.90;90.50;;;;;;5027534;28;20088;-77
2021/11/19 00:40:41;;;;;;;35.67;17.80;;;1.80;91.60;;;;;;5034935;28;20107;-78
2021/11/19 00:43:11;;;;;;;27.73;15.10;;;1.70;90.80;;;;;;5024854;28;20072;-77
2021/11/19 00:45:37;;;;;;;32.85;15.38;;;1.80;89.50;;;;;;5028214;28;20044;-77
2021/11/19 00:48:04;;;;;;;36.90;17.95;;;1.80;90.10;;;;;;5043411;28;20029;-77
2021/11/19 00:50:48;;;;;;;34.30;17.13;;;1.80;89.20;;;;;;5040163;28;20337;-77
2021/11/19 00:53:14;;;;;;;46.38;19.02;;;1.80;89.30;;;;;;5028151;28;20017;-77
2021/11/19 00:55:40;;;;;;;37.80;18.52;;;1.90;89.70;;;;;;5024609;28;20329;-77
2021/11/19 00:58:06;;;;;;;36.17;17.88;;;1.80;90.00;;;;;;5046063;28;20133;-77
2021/11/19 01:00:37;;;;;;;41.33;19.15;;;1.80;89.10;;;;;;5023876;28;20026;-77
2021/11/19 01:03:06;;;;;;;36.60;18.48;;;1.90;88.90;;;;;;5029709;28;20338;-77
2021/11/19 01:05:32;;;;;;;37.85;18.55;;;1.90;89.10;;;;;;5030370;28;20026;-78
2021/11/19 01:07:58;;;;;;;28.83;15.95;;;1.90;89.40;;;;;;5026399;28;20377;-77
2021/11/19 01:10:28;;;;;;;42.80;19.15;;;1.90;89.40;;;;;;5025649;28;20030;-78
2021/11/19 01:12:55;;;;;;;31.58;15.93;;;1.90;88.90;;;;;;5026252;28;20354;-77
2021/11/19 01:15:35;;;;;;;37.03;17.90;;;1.90;89.20;;;;;;5026487;28;20025;-77
2021/11/19 01:18:10;;;;;;;36.90;17.60;;;1.70;89.60;;;;;;5026121;28;20037;-77
2021/11/19 01:20:49;;;;;;;38.83;18.25;;;1.70;89.00;;;;;;5039637;28;20033;-77
2021/11/19 01:23:17;;;;;;;32.33;17.27;;;1.80;88.10;;;;;;5039551;28;20076;-78
2021/11/19 01:25:51;;;;;;;40.60;19.67;;;1.90;88.10;;;;;;5027948;28;20426;-78
2021/11/19 01:28:17;;;;;;;41.47;17.80;;;1.90;88.10;;;;;;5044379;28;20718;-77
2021/11/19 01:30:57;;;;;;;32.92;16.77;;;1.90;88.30;;;;;;5024846;28;20200;-77
2021/11/19 01:33:23;;;;;;;33.67;16.73;;;1.90;88.30;;;;;;5030232;28;20033;-77
2021/11/19 01:35:50;;;;;;;25.48;14.52;;;1.70;90.40;;;;;;5042048;28;20029;-77
2021/11/19 01:38:16;;;;;;;35.45;17.15;;;1.50;89.00;;;;;;5023974;28;20330;-77
2021/11/19 01:40:47;;;;;;;27.33;13.80;;;1.50;88.80;;;;;;5018817;28;20037;-77
2021/11/19 01:43:14;;;;;;;36.33;15.68;;;1.60;87.40;;;;;;5025053;28;20025;-77
2021/11/19 01:45:47;;;;;;;30.00;15.13;;;1.70;88.00;;;;;;5039858;28;20064;-77
2021/11/19 01:48:17;;;;;;;28.02;14.32;;;1.80;88.40;;;;;;5047997;28;20037;-78
2021/11/19 01:50:55;;;;;;;33.55;16.02;;;1.60;89.40;;;;;;5031101;28;20052;-77
2021/11/19 01:53:40;;;;;;;23.45;12.93;;;1.50;89.20;;;;;;5025239;28;20030;-79
2021/11/19 01:56:16;;;;;;;28.13;14.30;;;1.40;89.30;;;;;;5025729;28;20523;-77
2021/11/19 01:58:53;;;;;;;33.38;15.68;;;1.40;88.50;;;;;;5024671;28;20702;-77
2021/11/19 02:01:23;;;;;;;35.17;16.73;;;1.40;88.50;;;;;;5029226;28;20080;-78
2021/11/19 02:03:55;;;;;;;29.02;15.18;;;1.40;88.30;;;;;;5029174;28;20041;-78
2021/11/19 02:06:39;;;;;;;28.42;15.38;;;1.50;87.90;;;;;;5025843;28;20109;-77
2021/11/19 02:09:10;;;;;;;22.95;12.95;;;1.70;87.40;;;;;;5033381;28;20037;-77
2021/11/19 02:11:41;;;;;;;35.97;16.27;;;1.80;87.40;;;;;;5029914;28;20116;-77
2021/11/19 02:14:13;;;;;;;34.08;15.70;;;1.70;89.10;;;;;;5032567;28;20029;-77
2021/11/19 02:16:45;;;;;;;26.95;14.07;;;1.40;89.40;;;;;;5023792;28;20025;-77
2021/11/19 02:19:15;;;;;;;28.25;14.88;;;1.50;87.80;;;;;;5023594;28;20091;-77
2021/11/19 02:21:53;;;;;;;27.30;13.40;;;1.50;87.60;;;;;;5024497;28;20418;-78
2021/11/19 02:24:44;;;;;;;34.47;15.63;;;1.60;87.40;;;;;;5030020;28;20119;-78
2021/11/19 02:27:16;;;;;;;23.30;12.07;;;1.70;88.10;;;;;;5031916;28;20104;-78
2021/11/19 02:29:51;;;;;;;31.85;14.68;;;1.60;88.80;;;;;;5031331;28;20021;-77
2021/11/19 02:32:23;;;;;;;25.90;12.57;;;1.50;89.80;;;;;;5029712;28;20112;-77
2021/11/19 02:34:49;;;;;;;25.42;12.38;;;1.50;87.80;;;;;;5030575;28;20480;-77
2021/11/19 02:37:22;;;;;;;30.85;15.10;;;1.50;88.10;;;;;;5029440;28;20037;-77
2021/11/19 02:39:52;;;;;;;24.75;11.52;;;1.50;88.40;;;;;;5029675;28;20060;-77
2021/11/19 02:42:21;;;;;;;22.92;11.15;;;1.50;88.40;;;;;;5047483;28;20098;-76
2021/11/19 02:44:49;;;;;;;20.80;10.55;;;1.50;88.00;;;;;;5029567;28;20053;-78
2021/11/19 02:47:17;;;;;;;35.90;13.40;;;1.60;87.50;;;;;;5026352;28;20334;-77
2021/11/19 02:49:44;;;;;;;26.83;11.25;;;1.60;87.90;;;;;;5031375;28;20028;-77
2021/11/19 02:52:20;;;;;;;26.48;12.55;;;1.70;87.50;;;;;;5045338;28;20041;-77
2021/11/19 02:54:47;;;;;;;25.48;12.55;;;1.60;88.50;;;;;;5027445;28;20052;-77
2021/11/19 02:57:13;;;;;;;24.20;12.45;;;1.60;88.00;;;;;;5031526;28;20080;-77
2021/11/19 02:59:39;;;;;;;22.17;11.30;;;1.60;88.70;;;;;;5026726;28;20397;-77
2021/11/19 03:02:09;;;;;;;22.80;11.40;;;1.60;88.50;;;;;;5031266;28;20026;-76
2021/11/19 03:04:42;;;;;;;17.95;9.63;;;1.50;88.50;;;;;;5028817;28;20045;-77
2021/11/19 03:07:08;;;;;;;17.92;10.15;;;1.50;88.70;;;;;;5045179;28;20116;-77
2021/11/19 03:09:41;;;;;;;18.30;9.93;;;1.40;88.70;;;;;;5029895;28;20303;-77
2021/11/19 03:12:09;;;;;;;26.52;10.38;;;1.40;88.00;;;;;;5031930;28;20029;-77
2021/11/19 03:14:35;;;;;;;22.25;10.05;;;1.60;87.20;;;;;;5028832;28;20091;-76
2021/11/19 03:17:02;;;;;;;16.70;8.38;;;1.60;88.30;;;;;;5029768;28;20030;-76
2021/11/19 03:19:28;;;;;;;22.55;10.02;;;1.60;88.00;;;;;;5027535;28;20049;-76
2021/11/19 03:21:54;;;;;;;23.48;11.60;;;1.60;88.70;;;;;;5029429;28;20326;-77
2021/11/19 03:24:21;;;;;;;19.65;9.35;;;1.40;89.70;;;;;;5027993;28;20040;-77
2021/11/19 03:26:50;;;;;;;17.60;9.25;;;1.20;89.90;;;;;;5030414;28;20037;-77
2021/11/19 03:29:16;;;;;;;18.90;9.73;;;1.20;88.70;;;;;;5044650;28;20324;-78
2021/11/19 03:31:44;;;;;;;20.27;9.63;;;1.30;87.60;;;;;;5030069;28;20130;-78
2021/11/19 03:34:10;;;;;;;28.17;10.93;;;1.40;88.00;;;;;;5029880;28;20498;-77
2021/11/19 03:36:44;;;;;;;22.73;10.15;;;1.40;88.40;;;;;;5047599;28;20028;-77
2021/11/19 03:39:11;;;;;;;20.92;9.43;;;1.40;88.40;;;;;;5027901;28;20438;-77
2021/11/19 03:41:39;;;;;;;24.50;10.85;;;1.30;88.50;;;;;;5030633;28;20038;-76
2021/11/19 03:44:13;;;;;;;17.98;10.05;;;1.30;88.40;;;;;;5028469;28;20025;-78
2021/11/19 03:46:54;;;;;;;22.00;9.63;;;1.40;87.90;;;;;;5030914;28;20381;-77
2021/11/19 03:49:20;;;;;;;16.23;8.85;;;1.40;87.50;;;;;;5042358;28;20303;-77
2021/11/19 03:52:04;;;;;;;20.80;9.57;;;1.60;87.30;;;;;;5032022;28;20088;-76
2021/11/19 03:54:32;;;;;;;23.25;10.48;;;1.60;88.20;;;;;;5027397;28;20323;-78
2021/11/19 03:56:58;;;;;;;18.38;9.05;;;1.50;88.90;;;;;;5029605;28;20171;-77
2021/11/19 03:59:25;;;;;;;26.40;10.35;;;1.50;88.70;;;;;;5030436;28;20049;-77
2021/11/19 04:01:52;;;;;;;22.40;10.45;;;1.30;89.20;;;;;;5027308;28;20034;-77
2021/11/19 04:04:20;;;;;;;17.98;9.07;;;1.30;88.50;;;;;;5032082;28;20060;-77
2021/11/19 04:06:46;;;;;;;20.10;8.73;;;1.30;88.20;;;;;;5032206;28;20312;-78
2021/11/19 04:09:12;;;;;;;18.25;8.45;;;1.30;88.40;;;;;;5031352;28;20039;-77
2021/11/19 04:11:41;;;;;;;18.27;9.50;;;1.30;88.70;;;;;;5034858;28;20028;-77
2021/11/19 04:14:08;;;;;;;20.70;10.02;;;1.30;89.00;;;;;;5037648;28;20025;-77
2021/11/19 04:16:44;;;;;;;22.92;10.45;;;1.10;89.30;;;;;;5036280;28;20029;-77
2021/11/19 04:19:11;;;;;;;17.95;8.50;;;1.10;89.30;;;;;;5036566;28;20029;-77
2021/11/19 04:21:38;;;;;;;23.00;10.20;;;1.00;89.10;;;;;;5037734;28;20036;-77
2021/11/19 04:24:07;;;;;;;18.50;7.82;;;1.00;88.70;;;;;;5030746;28;20034;-76
2021/11/19 04:26:34;;;;;;;26.30;13.77;;;1.10;88.20;;;;;;5034489;28;20423;-78
2021/11/19 04:29:01;;;;;;;40.83;21.73;;;1.10;88.60;;;;;;5032705;28;20116;-77
2021/11/19 04:31:29;;;;;;;34.22;16.23;;;1.00;89.50;;;;;;5034098;28;20023;-77
2021/11/19 04:33:55;;;;;;;22.83;11.00;;;0.80;89.90;;;;;;5031402;28;20025;-77
2021/11/19 04:36:22;;;;;;;20.10;10.88;;;0.70;89.10;;;;;;5032117;28;20026;-77
2021/11/19 04:38:48;;;;;;;18.52;9.15;;;0.90;87.70;;;;;;5029839;28;20112;-76
2021/11/19 04:41:15;;;;;;;23.67;10.52;;;1.00;88.00;;;;;;5031776;28;20025;-77
2021/11/19 04:43:41;;;;;;;32.17;15.32;;;1.10;87.60;;;;;;5032852;28;20076;-77
2021/11/19 04:46:11;;;;;;;67.35;43.78;;;1.30;87.30;;;;;;5030672;28;20509;-77
2021/11/19 04:48:38;;;;;;;21.98;11.48;;;1.20;88.90;;;;;;5031604;28;20080;-76
2021/11/19 04:51:08;;;;;;;23.85;10.30;;;1.10;88.90;;;;;;5033073;28;20061;-76
2021/11/19 04:53:34;;;;;;;19.10;9.32;;;1.10;88.10;;;;;;5036430;28;20033;-77
2021/11/19 04:56:01;;;;;;;21.88;9.43;;;1.20;87.80;;;;;;5030267;28;21510;-77
2021/11/19 04:58:27;;;;;;;16.98;8.30;;;1.40;86.80;;;;;;5030244;28;20029;-78
2021/11/19 05:00:56;;;;;;;18.10;8.82;;;1.50;87.10;;;;;;5032618;28;20032;-77
2021/11/19 05:03:22;;;;;;;19.33;8.32;;;1.60;88.10;;;;;;5034704;28;20037;-77
2021/11/19 05:05:49;;;;;;;23.80;7.68;;;1.60;87.90;;;;;;5033635;28;20029;-77
2021/11/19 05:08:16;;;;;;;22.52;9.85;;;1.60;88.00;;;;;;5030926;28;20156;-78
2021/11/19 05:10:43;;;;;;;23.17;9.93;;;1.60;87.40;;;;;;5030952;28;20018;-77
2021/11/19 05:13:11;;;;;;;18.75;8.40;;;1.50;89.50;;;;;;5047572;28;20095;-77
2021/11/19 05:15:40;;;;;;;18.70;9.45;;;1.30;89.90;;;;;;5034970;28;20017;-77
2021/11/19 05:18:06;;;;;;;13.60;7.57;;;1.20;90.10;;;;;;5034969;28;20030;-77
2021/11/19 05:20:32;;;;;;;17.65;8.35;;;1.10;89.70;;;;;;5047368;28;20038;-76
2021/11/19 05:22:58;;;;;;;44.10;23.50;;;0.90;90.00;;;;;;5047221;28;20037;-77
2021/11/19 05:25:27;;;;;;;16.58;8.88;;;0.70;90.60;;;;;;5031878;28;20087;-78
2021/11/19 05:27:54;;;;;;;24.00;10.00;;;0.60;89.40;;;;;;5032111;28;21432;-78
2021/11/19 05:30:20;;;;;;;19.40;8.35;;;0.80;87.90;;;;;;5048200;28;20025;-77
2021/11/19 05:32:47;;;;;;;20.58;8.10;;;0.90;87.80;;;;;;5035267;28;20029;-77
2021/11/19 05:35:15;;;;;;;19.05;8.38;;;1.10;87.30;;;;;;5036081;28;20093;-78
2021/11/19 05:37:42;;;;;;;25.52;9.75;;;1.30;87.20;;;;;;5036400;28;20457;-76
2021/11/19 05:40:12;;;;;;;24.45;8.65;;;1.40;87.40;;;;;;5034742;28;20040;-77
2021/11/19 05:42:38;;;;;;;20.80;8.57;;;1.40;87.60;;;;;;5035040;28;20075;-77
2021/11/19 05:45:07;;;;;;;20.45;9.15;;;1.40;88.70;;;;;;5031856;28;20057;-77
2021/11/19 05:47:34;;;;;;;15.20;8.60;;;1.00;90.40;;;;;;5033777;28;20029;-76
2021/11/19 05:50:00;;;;;;;21.05;11.63;;;0.80;89.90;;;;;;5035511;28;20033;-77
2021/11/19 05:52:29;;;;;;;38.60;19.35;;;0.70;90.40;;;;;;5032697;28;20056;-78
2021/11/19 05:54:56;;;;;;;32.90;16.13;;;0.50;90.40;;;;;;5030566;28;20025;-76
2021/11/19 05:57:22;;;;;;;30.73;17.13;;;0.40;90.60;;;;;;5027983;28;20033;-77
2021/11/19 05:59:48;;;;;;;48.95;22.15;;;0.30;90.40;;;;;;5031280;28;20043;-76
2021/11/19 06:02:18;;;;;;;29.42;16.00;;;0.20;90.10;;;;;;5030375;28;20036;-76
2021/11/19 06:04:44;;;;;;;23.50;9.00;;;0.10;90.10;;;;;;5033369;28;20049;-76
2021/11/19 06:07:10;;;;;;;15.40;7.50;;;0.30;87.80;;;;;;5033252;28;20025;-76
2021/11/19 06:09:40;;;;;;;22.63;8.25;;;0.60;87.30;;;;;;5032447;28;20492;-76
2021/11/19 06:12:11;;;;;;;18.85;8.32;;;0.80;87.40;;;;;;5016453;28;20084;-76
2021/11/19 06:14:41;;;;;;;16.45;7.40;;;0.90;87.40;;;;;;5040227;28;20072;-76
2021/11/19 06:17:16;;;;;;;16.88;7.80;;;1.00;87.50;;;;;;5017135;28;20126;-76
2021/11/19 06:19:46;;;;;;;16.17;7.97;;;1.10;88.70;;;;;;5035897;28;20368;-79
2021/11/19 06:22:20;;;;;;;23.35;7.80;;;1.00;88.30;;;;;;5035990;28;20057;-79
2021/11/19 06:24:48;;;;;;;15.38;7.43;;;0.90;88.10;;;;;;5016990;28;20032;-78
2021/11/19 06:27:22;;;;;;;15.77;7.22;;;1.00;87.90;;;;;;5033339;28;20033;-77
2021/11/19 06:29:49;;;;;;;22.25;9.60;;;1.00;88.40;;;;;;5036413;28;20060;-77
2021/11/19 06:32:15;;;;;;;17.90;7.25;;;0.90;88.80;;;;;;5035331;28;20029;-78
2021/11/19 06:34:41;;;;;;;24.67;7.30;;;0.80;89.40;;;;;;5014646;28;20079;-76
2021/11/19 06:37:06;;;;;;;18.30;6.53;;;0.90;87.50;;;;;;5031600;28;20029;-77
2021/11/19 06:39:33;;;;;;;26.08;8.10;;;1.00;87.30;;;;;;5033819;28;20010;-77
2021/11/19 06:42:02;;;;;;;16.60;6.63;;;1.20;86.90;;;;;;5034509;28;20022;-77
2021/11/19 06:44:27;;;;;;;21.85;7.65;;;1.20;87.50;;;;;;5017415;28;20476;-77
2021/11/19 06:46:53;;;;;;;19.90;7.18;;;1.20;88.20;;;;;;5034610;28;20029;-77
2021/11/19 06:49:19;;;;;;;15.90;6.60;;;1.10;88.00;;;;;;5034451;28;20038;-77
2021/11/19 06:51:45;;;;;;;18.80;6.47;;;1.20;87.60;;;;;;5034710;28;20339;-78
2021/11/19 06:54:11;;;;;;;22.60;7.32;;;1.20;87.90;;;;;;5033674;28;20487;-77
2021/11/19 06:56:36;;;;;;;17.15;6.35;;;1.30;87.40;;;;;;5034572;28;20029;-76
2021/11/19 06:59:05;;;;;;;24.83;8.30;;;1.40;87.00;;;;;;5017553;28;20342;-76
2021/11/19 07:01:30;;;;;;;16.80;6.50;;;1.50;87.30;;;;;;5034501;28;20071;-77
2021/11/19 07:03:57;;;;;;;24.75;7.25;;;1.60;87.50;;;;;;5034010;28;20045;-78
2021/11/19 07:06:23;;;;;;;16.27;6.47;;;1.50;88.60;;;;;;5034072;28;20049;-77
2021/11/19 07:08:49;;;;;;;12.27;5.18;;;1.50;88.50;;;;;;5014950;28;20115;-77
2021/11/19 07:11:19;;;;;;;13.27;5.57;;;1.50;88.10;;;;;;5032914;28;20033;-78
2021/11/19 07:13:48;;;;;;;15.75;6.15;;;1.60;87.50;;;;;;5034714;28;20033;-78
2021/11/19 07:16:15;;;;;;;15.25;5.70;;;1.60;88.00;;;;;;5034549;28;20722;-77
2021/11/19 07:18:41;;;;;;;14.68;6.43;;;1.70;88.00;;;;;;5033364;28;20041;-77
2021/11/19 07:21:10;;;;;;;12.88;5.45;;;1.70;88.00;;;;;;5034654;28;20106;-78
2021/11/19 07:23:36;;;;;;;14.98;6.70;;;1.90;87.70;;;;;;5034586;28;20049;-76
2021/11/19 07:26:02;;;;;;;14.05;4.90;;;1.90;87.90;;;;;;5032936;28;20056;-78
2021/11/19 07:28:28;;;;;;;17.60;9.02;;;2.00;88.30;;;;;;5017047;28;20026;-77
2021/11/19 07:31:00;;;;;;;27.10;14.60;;;2.00;89.40;;;;;;5034417;28;20296;-77
2021/11/19 07:33:27;;;;;;;23.25;14.15;;;1.80;90.10;;;;;;5034096;28;20018;-77
2021/11/19 07:35:55;;;;;;;26.02;9.15;;;1.70;90.00;;;;;;5033521;28;20028;-77
2021/11/19 07:38:23;;;;;;;16.25;7.63;;;1.60;89.90;;;;;;5032067;28;20025;-78
2021/11/19 07:40:51;;;;;;;15.30;7.80;;;1.70;88.70;;;;;;5036104;28;20036;-77
2021/11/19 07:43:19;;;;;;;39.38;18.90;;;1.70;89.10;;;;;;5020195;28;20026;-77
2021/11/19 07:45:45;;;;;;;73.30;28.35;;;1.60;90.40;;;;;;5037932;28;20374;-77
2021/11/19 07:48:18;;;;;;;68.95;27.65;;;1.60;90.50;;;;;;5038542;28;20036;-76
2021/11/19 07:50:47;;;;;;;38.25;19.83;;;1.60;90.00;;;;;;5020891;28;20025;-77
2021/11/19 07:53:16;;;;;;;38.58;18.42;;;1.50;89.60;;;;;;5037529;28;20026;-77
2021/11/19 07:55:42;;;;;;;33.22;14.18;;;1.60;88.70;;;;;;5035920;28;20120;-78
2021/11/19 07:58:08;;;;;;;21.27;9.50;;;1.70;88.60;;;;;;5038061;28;20038;-76
2021/11/19 08:00:36;;;;;;;18.63;8.68;;;1.80;89.10;;;;;;5037224;28;20026;-77
2021/11/19 08:03:03;;;;;;;19.95;8.90;;;1.80;89.60;;;;;;5037226;28;20037;-78
2021/11/19 08:05:28;;;;;;;19.65;9.05;;;1.90;89.50;;;;;;5037283;28;20052;-77
2021/11/19 08:07:54;;;;;;;15.43;7.35;;;2.10;88.80;;;;;;5020620;28;20030;-77
2021/11/19 08:10:20;;;;;;;18.25;8.27;;;2.30;88.50;;;;;;5019166;28;20021;-76
2021/11/19 08:12:47;;;;;;;27.27;11.90;;;2.40;89.20;;;;;;5036083;28;20018;-77
2021/11/19 08:15:15;;;;;;;36.13;19.15;;;2.40;89.20;;;;;;5036703;28;20415;-77
2021/11/19 08:17:49;;;;;;;32.35;20.38;;;2.70;85.80;;;;;;5037188;28;20029;-77
2021/11/19 08:20:22;;;;;;;25.10;13.18;;;3.40;85.20;;;;;;5017186;28;20092;-77
2021/11/19 08:22:49;;;;;;;23.63;12.47;;;3.90;85.70;;;;;;5035633;28;20037;-77
2021/11/19 08:25:15;;;;;;;19.92;12.50;;;3.60;92.50;;;;;;5035994;28;20441;-77
2021/11/19 08:27:48;;;;;;;21.42;11.82;;;3.60;91.80;;;;;;5018538;28;20026;-77
2021/11/19 08:30:30;;;;;;;21.70;11.23;;;4.40;92.50;;;;;;5036481;28;20029;-76
2021/11/19 08:32:58;;;;;;;17.80;9.60;;;5.30;95.30;;;;;;5036802;28;20052;-77
2021/11/19 08:35:26;;;;;;;17.40;9.85;;;6.30;95.70;;;;;;5035686;28;20061;-77
2021/11/19 08:37:54;;;;;;;18.15;9.45;;;7.10;98.00;;;;;;5036724;28;20029;-77
2021/11/19 08:40:22;;;;;;;15.05;7.65;;;7.10;98.00;;;;;;5018977;28;20052;-77
2021/11/19 08:42:48;;;;;;;15.82;8.48;;;7.10;98.00;;;;;;5036800;28;20034;-77
2021/11/19 08:45:18;;;;;;;14.88;7.93;;;7.90;98.00;;;;;;5037479;28;20029;-78
2021/11/19 08:47:47;;;;;;;16.27;7.90;;;8.50;98.00;;;;;;5019601;28;20111;-77
2021/11/19 08:50:15;;;;;;;14.73;8.02;;;8.20;97.90;;;;;;5035822;28;20048;-77
2021/11/19 08:52:41;;;;;;;12.80;7.50;;;8.00;98.00;;;;;;5017413;28;20056;-77
2021/11/19 08:55:10;;;;;;;18.23;9.73;;;8.40;98.00;;;;;;5018149;28;20114;-77
2021/11/19 08:57:36;;;;;;;16.35;9.05;;;8.80;98.00;;;;;;5035549;28;20319;-77
2021/11/19 09:00:06;;;;;;;16.25;9.65;;;8.60;94.10;;;;;;5036602;28;20029;-77
2021/11/19 09:02:32;;;;;;;14.43;8.38;;;9.00;96.20;;;;;;5036329;28;20036;-78
2021/11/19 09:04:58;;;;;;;17.88;8.50;;;9.50;94.90;;;;;;5035282;28;20115;-77
2021/11/19 09:07:24;;;;;;;14.35;8.65;;;9.40;91.60;;;;;;5035411;28;20034;-77
2021/11/19 09:09:52;;;;;;;14.30;8.43;;;9.10;91.10;;;;;;5035334;28;20025;-77
2021/11/19 09:12:18;;;;;;;15.90;9.07;;;9.30;94.00;;;;;;5035379;28;20452;-77
2021/11/19 09:14:45;;;;;;;18.30;11.00;;;10.00;93.20;;;;;;5035289;28;20034;-77
2021/11/19 09:17:15;;;;;;;18.65;9.48;;;10.20;90.20;;;;;;5035264;28;20037;-77
2021/11/19 09:20:01;;;;;;;19.65;10.50;;;10.90;90.00;;;;;;5035279;28;20079;-77
2021/11/19 09:22:31;;;;;;;14.00;9.15;;;11.30;88.20;;;;;;5036725;28;20024;-78
2021/11/19 09:24:59;;;;;;;16.08;8.73;;;12.00;90.10;;;;;;5030619;28;20028;-77
2021/11/19 09:27:25;;;;;;;16.20;8.25;;;12.20;85.90;;;;;;5035706;28;20025;-78
2021/11/19 09:29:59;;;;;;;12.43;6.57;;;12.80;89.80;;;;;;5034134;28;20480;-77
2021/11/19 09:32:25;;;;;;;12.90;6.05;;;13.60;84.10;;;;;;5018350;28;20410;-77
2021/11/19 09:34:54;;;;;;;8.70;4.60;;;13.60;84.10;;;;;;5036042;28;20061;-77
2021/11/19 09:37:21;;;;;;;8.57;3.75;;;13.50;84.30;;;;;;5035567;28;20026;-77
2021/11/19 09:39:49;;;;;;;8.13;2.53;;;13.70;81.10;;;;;;5034581;28;20370;-77
2021/11/19 09:42:37;;;;;;;8.45;2.97;;;14.10;76.70;;;;;;5035728;28;20025;-77
2021/11/19 09:45:24;;;;;;;5.05;2.28;;;14.40;78.10;;;;;;5034747;28;20044;-77
2021/11/19 09:48:27;;;;;;;5.35;1.92;;;15.10;78.60;;;;;;5033987;28;20064;-77
2021/11/19 09:51:05;;;;;;;4.80;1.90;;;15.90;73.10;;;;;;5034927;28;20022;-77
2021/11/19 09:53:49;;;;;;;6.47;1.92;;;16.30;71.10;;;;;;5030554;28;20083;-77
2021/11/19 09:56:33;;;;;;;8.90;2.03;;;17.10;67.00;;;;;;5034333;28;20311;-77
2021/11/19 09:59:09;;;;;;;6.43;1.77;;;17.20;65.60;;;;;;5036150;28;20045;-77
2021/11/19 10:02:07;;;;;;;8.88;3.10;;;17.10;66.10;;;;;;5035382;28;20304;-77
2021/11/19 10:04:51;;;;;;;8.30;2.67;;;16.60;64.70;;;;;;5033366;28;20091;-77
2021/11/19 10:07:58;;;;;;;8.00;3.08;;;15.70;67.20;;;;;;5020406;28;20319;-76
2021/11/19 10:10:33;;;;;;;8.65;3.17;;;15.60;69.80;;;;;;4998004;28;20060;-77
2021/11/19 10:13:06;;;;;;;7.13;2.75;;;15.60;67.80;;;;;;4999805;28;20029;-77
2021/11/19 10:15:43;;;;;;;7.20;2.72;;;15.30;68.20;;;;;;5020433;28;20450;-77
2021/11/19 10:18:32;;;;;;;7.65;3.45;;;14.80;68.60;;;;;;5027277;28;20598;-76
2021/11/19 10:21:09;;;;;;;9.00;5.25;;;14.70;69.20;;;;;;5019585;28;20033;-76
2021/11/19 10:23:44;;;;;;;9.07;4.30;;;13.40;73.90;;;;;;5001386;28;20034;-76
2021/11/19 10:26:21;;;;;;;9.15;2.95;;;12.70;76.60;;;;;;5018664;28;20044;-76
2021/11/19 10:29:09;;;;;;;7.60;4.07;;;13.30;73.10;;;;;;5006087;28;20044;-76
2021/11/19 10:31:35;;;;;;;10.63;5.68;;;13.80;74.10;;;;;;5016485;28;20048;-77
2021/11/19 10:34:21;;;;;;;11.15;5.57;;;13.30;75.70;;;;;;4995776;28;20079;-76
2021/11/19 10:37:23;;;;;;;11.70;6.47;;;13.50;75.60;;;;;;5019734;28;20041;-76
2021/11/19 10:40:07;;;;;;;13.82;7.35;;;14.20;75.30;;;;;;5013980;28;20104;-76
2021/11/19 10:43:10;;;;;;;14.52;7.38;;;12.90;77.10;;;;;;5014394;28;20022;-75
2021/11/19 10:46:17;;;;;;;18.08;9.55;;;11.90;79.80;;;;;;5018962;28;20018;-76
2021/11/19 10:49:06;;;;;;;11.30;7.50;;;11.30;83.20;;;;;;4999770;28;20498;-76
2021/11/19 10:51:40;;;;;;;12.32;7.85;;;11.30;82.70;;;;;;4999328;28;20036;-76
2021/11/19 10:54:10;;;;;;;;;;;11.60;82.10;;;;;;5014994;28;20498;-76
2021/11/19 10:56:50;;;;;;;11.93;7.93;;;12.30;81.70;;;;;;5015506;28;19909;-77
2021/11/19 10:59:19;;;;;;;13.57;8.82;;;12.60;80.50;;;;;;5025688;28;20048;-75
2021/11/19 11:02:24;;;;;;;11.95;8.65;;;12.60;80.40;;;;;;5015701;28;20113;-77
2021/11/19 11:04:57;;;;;;;13.73;8.27;;;12.90;79.50;;;;;;5019027;28;20073;-76
2021/11/19 11:07:31;;;;;;;13.40;8.02;;;12.30;81.00;;;;;;5013955;28;20419;-76
2021/11/19 11:10:12;;;;;;;14.50;9.57;;;12.10;81.90;;;;;;5013727;28;20045;-77
2021/11/19 11:12:44;;;;;;;14.05;9.27;;;12.20;80.90;;;;;;5000319;28;20046;-76
2021/11/19 11:15:20;;;;;;;13.15;8.65;;;12.10;82.10;;;;;;5015175;28;20089;-76
2021/11/19 11:17:55;;;;;;;14.95;8.88;;;12.30;80.50;;;;;;5008656;28;20045;-77
2021/11/19 11:20:28;;;;;;;11.70;7.32;;;12.20;81.60;;;;;;5012107;28;20033;-77
2021/11/19 11:23:01;;;;;;;12.40;7.32;;;12.30;81.10;;;;;;5019909;28;20108;-78
2021/11/19 11:25:36;;;;;;;11.50;7.30;;;12.80;79.90;;;;;;5014083;28;20125;-76
2021/11/19 11:28:21;;;;;;;11.35;6.82;;;12.90;79.30;;;;;;4998512;28;20037;-76
2021/11/19 11:30:53;;;;;;;15.90;8.27;;;12.70;79.30;;;;;;5012722;28;20029;-76
2021/11/19 11:33:28;;;;;;;13.88;7.93;;;12.30;80.30;;;;;;5012802;28;20080;-76
2021/11/19 11:36:29;;;;;;;11.98;7.03;;;12.20;80.20;;;;;;4995927;28;20025;-76
2021/11/19 11:39:16;;;;;;;10.90;7.07;;;12.00;80.60;;;;;;5015760;28;20021;-76
2021/11/19 11:42:02;;;;;;;11.75;7.13;;;11.90;81.70;;;;;;5013278;28;20026;-77
2021/11/19 11:44:49;;;;;;;11.75;7.07;;;12.60;79.90;;;;;;5006258;28;20093;-77
2021/11/19 11:48:04;;;;;;;14.48;7.40;;;12.60;78.20;;;;;;5014907;28;20022;-75
2021/11/19 11:51:05;;;;;;;13.85;7.07;;;12.20;80.40;;;;;;4982971;28;20030;-75
2021/11/19 11:54:16;;;;;;;10.40;6.60;;;12.40;79.80;;;;;;5015843;28;20026;-76
2021/11/19 11:56:49;;;;;;;13.65;7.03;;;13.10;78.90;;;;;;5028171;28;20033;-75
2021/11/19 11:59:34;;;;;;;13.35;6.57;;;13.00;77.80;;;;;;5014023;28;20026;-75
2021/11/19 12:02:06;;;;;;;9.65;6.32;;;12.70;78.70;;;;;;4991354;28;20108;-75
2021/11/19 12:05:00;;;;;;;11.10;5.32;;;12.60;78.60;;;;;;5031150;28;20434;-75
2021/11/19 12:08:01;;;;;;;10.07;5.10;;;12.70;75.90;;;;;;5016420;28;20408;-76
2021/11/19 12:10:52;;;;;;;11.50;4.80;;;12.60;76.70;;;;;;5023329;28;20040;-75
2021/11/19 12:13:26;;;;;;;11.98;5.75;;;12.70;76.50;;;;;;5031634;28;20049;-75
2021/11/19 12:16:12;;;;;;;11.40;5.70;;;12.20;76.10;;;;;;5032542;28;20025;-77
2021/11/19 12:18:44;;;;;;;8.95;5.30;;;12.20;77.10;;;;;;5025879;28;20040;-76
2021/11/19 12:21:28;;;;;;;10.80;4.70;;;12.50;76.80;;;;;;5032664;28;20037;-76
2021/11/19 12:24:29;;;;;;;17.40;4.90;;;12.70;76.00;;;;;;5032480;28;20116;-77
2021/11/19 12:27:25;;;;;;;9.27;4.40;;;13.10;75.20;;;;;;5027765;28;20037;-77
2021/11/19 12:30:10;;;;;;;9.13;5.00;;;13.30;74.90;;;;;;5031973;28;20029;-76
2021/11/19 12:32:45;;;;;;;10.90;5.18;;;12.90;75.90;;;;;;5028503;28;20045;-76
2021/11/19 12:36:00;;;;;;;10.88;5.82;;;12.30;77.90;;;;;;5029655;28;20033;-78
2021/11/19 12:38:32;;;;;;;14.13;6.97;;;12.10;78.30;;;;;;5004901;28;20039;-76
2021/11/19 12:41:22;;;;;;;10.80;6.00;;;11.60;79.20;;;;;;5034952;28;20029;-77
2021/11/19 12:43:57;;;;;;;10.52;5.90;;;11.40;81.30;;;;;;5018559;28;20033;-77
2021/11/19 12:46:50;;;;;;;11.77;6.55;;;11.70;80.20;;;;;;5036455;28;20075;-77
2021/11/19 12:49:43;;;;;;;10.60;7.03;;;11.80;78.90;;;;;;5035954;28;20065;-78
2021/11/19 12:52:14;;;;;;;23.13;7.70;;;11.40;80.50;;;;;;5035190;28;20033;-77
2021/11/19 12:54:45;;;;;;;11.65;6.30;;;11.20;82.00;;;;;;5027851;28;20032;-77
2021/11/19 12:57:41;;;;;;;14.30;6.80;;;10.90;82.60;;;;;;5036714;28;20105;-77
2021/11/19 13:00:34;;;;;;;15.40;8.48;;;10.70;83.20;;;;;;5032295;28;20513;-77
2021/11/19 13:03:37;;;;;;;12.68;7.82;;;10.80;84.40;;;;;;5018596;28;20038;-77
2021/11/19 13:06:26;;;;;;;13.70;7.25;;;11.00;83.30;;;;;;5033516;28;20030;-77
2021/11/19 13:09:23;;;;;;;14.93;7.28;;;10.90;84.10;;;;;;5033622;28;20033;-77